createdAt,value
2022-12-31T00:00:48.104Z,8.64
2022-12-31T00:01:48.061Z,8.66
2022-12-31T00:02:48.024Z,8.67
2022-12-31T00:03:47.964Z,8.67
2022-12-31T00:04:47.935Z,8.65
2022-12-31T00:05:48.013Z,8.67
2022-12-31T00:06:48.073Z,8.70
2022-12-31T00:07:47.909Z,8.73
2022-12-31T00:08:47.944Z,8.72
2022-12-31T00:09:48.140Z,8.70
2022-12-31T00:10:47.953Z,8.68
2022-12-31T00:11:47.873Z,8.67
2022-12-31T00:12:48.405Z,8.68
2022-12-31T00:13:48.390Z,8.69
2022-12-31T00:14:47.856Z,8.72
2022-12-31T00:15:47.850Z,8.74
2022-12-31T00:16:47.829Z,8.74
2022-12-31T00:17:47.822Z,8.74
2022-12-31T00:18:47.792Z,8.73
2022-12-31T00:19:47.943Z,8.74
2022-12-31T00:20:47.800Z,8.76
2022-12-31T00:21:47.789Z,8.80
2022-12-31T00:22:47.760Z,8.84
2022-12-31T00:23:47.802Z,8.88
2022-12-31T00:24:47.720Z,8.90
2022-12-31T00:25:47.794Z,8.91
2022-12-31T00:26:47.765Z,8.91
2022-12-31T00:27:47.704Z,8.92
2022-12-31T00:28:47.696Z,8.91
2022-12-31T00:29:47.693Z,8.89
2022-12-31T00:30:47.688Z,8.88
2022-12-31T00:31:47.685Z,8.88
2022-12-31T00:32:47.661Z,8.90
2022-12-31T00:33:47.630Z,8.92
2022-12-31T00:34:47.703Z,8.94
2022-12-31T00:35:47.628Z,8.96
2022-12-31T00:36:47.610Z,8.96
2022-12-31T00:37:47.743Z,8.96
2022-12-31T00:38:47.597Z,8.97
2022-12-31T00:39:47.603Z,8.99
2022-12-31T00:40:47.563Z,9.03
2022-12-31T00:41:47.585Z,9.06
2022-12-31T00:42:47.548Z,9.07
2022-12-31T00:43:47.587Z,9.07
2022-12-31T00:44:47.547Z,9.07
2022-12-31T00:45:47.571Z,9.07
2022-12-31T00:46:48.677Z,9.07
2022-12-31T00:47:47.508Z,9.06
2022-12-31T00:48:47.513Z,9.06
2022-12-31T00:49:47.469Z,9.06
2022-12-31T00:50:47.518Z,9.07
2022-12-31T00:51:47.520Z,9.07
2022-12-31T00:52:47.491Z,9.07
2022-12-31T00:53:47.486Z,9.07
2022-12-31T00:54:47.437Z,9.06
2022-12-31T00:55:48.841Z,9.07
2022-12-31T00:56:47.411Z,9.08
2022-12-31T00:57:47.495Z,9.08
2022-12-31T00:58:47.424Z,9.06
2022-12-31T00:59:47.395Z,9.04
2022-12-31T01:00:47.441Z,9.03
2022-12-31T01:01:47.555Z,9.03
2022-12-31T01:02:47.549Z,9.03
2022-12-31T01:03:47.357Z,9.04
2022-12-31T01:04:47.411Z,9.06
2022-12-31T01:05:47.403Z,9.09
2022-12-31T01:06:47.350Z,9.11
2022-12-31T01:07:47.374Z,9.12
2022-12-31T01:08:47.360Z,9.11
2022-12-31T01:09:47.317Z,9.10
2022-12-31T01:10:47.268Z,9.09
2022-12-31T01:11:47.324Z,9.10
2022-12-31T01:12:47.264Z,9.13
2022-12-31T01:13:47.272Z,9.14
2022-12-31T01:14:47.287Z,9.14
2022-12-31T01:15:47.292Z,9.15
2022-12-31T01:16:47.207Z,9.18
2022-12-31T01:17:47.248Z,9.21
2022-12-31T01:18:47.246Z,9.22
2022-12-31T01:19:47.176Z,9.22
2022-12-31T01:20:47.187Z,9.20
2022-12-31T01:21:47.187Z,9.18
2022-12-31T01:22:47.171Z,9.19
2022-12-31T01:23:47.151Z,9.22
2022-12-31T01:24:47.152Z,9.25
2022-12-31T01:25:47.128Z,9.24
2022-12-31T01:26:47.127Z,9.22
2022-12-31T01:27:47.135Z,9.19
2022-12-31T01:28:47.087Z,9.16
2022-12-31T01:29:47.134Z,9.13
2022-12-31T01:30:47.149Z,9.10
2022-12-31T01:31:47.058Z,9.06
2022-12-31T01:32:47.056Z,9.04
2022-12-31T01:33:47.058Z,9.04
2022-12-31T01:34:47.028Z,9.03
2022-12-31T01:35:47.072Z,9.00
2022-12-31T01:36:47.079Z,8.98
2022-12-31T01:37:47.109Z,8.98
2022-12-31T01:38:46.989Z,8.99
2022-12-31T01:39:47.028Z,8.99
2022-12-31T01:40:47.002Z,8.99
2022-12-31T01:41:47.055Z,8.99
2022-12-31T01:42:46.967Z,8.99
2022-12-31T01:43:46.951Z,8.98
2022-12-31T01:44:46.936Z,8.98
2022-12-31T01:45:46.943Z,8.98
2022-12-31T01:46:46.996Z,8.98
2022-12-31T01:47:46.913Z,8.98
2022-12-31T01:48:46.946Z,8.97
2022-12-31T01:49:46.883Z,8.97
2022-12-31T01:50:46.864Z,8.99
2022-12-31T01:51:46.860Z,9.01
2022-12-31T01:52:46.880Z,9.04
2022-12-31T01:53:46.844Z,9.05
2022-12-31T01:54:46.845Z,9.05
2022-12-31T01:55:47.011Z,9.04
2022-12-31T01:56:46.810Z,9.02
2022-12-31T01:57:46.839Z,9.01
2022-12-31T01:58:46.806Z,9.01
2022-12-31T01:59:46.945Z,9.02
2022-12-31T02:00:46.840Z,9.01
2022-12-31T02:01:46.886Z,9.00
2022-12-31T02:02:46.875Z,9.01
2022-12-31T02:03:46.766Z,9.03
2022-12-31T02:04:46.737Z,9.04
2022-12-31T02:05:46.760Z,9.04
2022-12-31T02:06:46.705Z,9.03
2022-12-31T02:07:46.729Z,9.01
2022-12-31T02:08:46.695Z,9.01
2022-12-31T02:09:46.682Z,9.01
2022-12-31T02:10:46.703Z,9.00
2022-12-31T02:11:46.672Z,8.98
2022-12-31T02:12:46.728Z,8.97
2022-12-31T02:13:46.688Z,8.96
2022-12-31T02:14:46.734Z,8.95
2022-12-31T02:15:46.697Z,8.95
2022-12-31T02:16:46.657Z,8.96
2022-12-31T02:17:46.625Z,8.95
2022-12-31T02:18:46.610Z,8.94
2022-12-31T02:19:46.591Z,8.94
2022-12-31T02:20:46.616Z,8.94
2022-12-31T02:21:46.567Z,8.93
2022-12-31T02:22:46.579Z,8.92
2022-12-31T02:23:46.538Z,8.92
2022-12-31T02:24:46.539Z,8.91
2022-12-31T02:25:46.536Z,8.90
2022-12-31T02:26:46.516Z,8.88
2022-12-31T02:27:46.523Z,8.86
2022-12-31T02:28:46.523Z,8.86
2022-12-31T02:29:46.531Z,8.85
2022-12-31T02:30:46.470Z,8.83
2022-12-31T02:31:46.496Z,8.82
2022-12-31T02:32:46.463Z,8.80
2022-12-31T02:33:46.467Z,8.78
2022-12-31T02:34:46.428Z,8.77
2022-12-31T02:35:46.447Z,8.77
2022-12-31T02:36:46.416Z,8.78
2022-12-31T02:37:46.462Z,8.80
2022-12-31T02:38:46.390Z,8.82
2022-12-31T02:39:46.414Z,8.84
2022-12-31T02:40:46.377Z,8.83
2022-12-31T02:41:46.365Z,8.81
2022-12-31T02:42:50.094Z,8.80
2022-12-31T02:43:46.362Z,8.80
2022-12-31T02:44:46.329Z,8.80
2022-12-31T02:45:46.460Z,8.79
2022-12-31T02:46:46.387Z,8.78
2022-12-31T02:47:46.342Z,8.78
2022-12-31T02:48:46.330Z,8.77
2022-12-31T02:49:46.319Z,8.77
2022-12-31T02:50:46.293Z,8.77
2022-12-31T02:51:46.292Z,8.77
2022-12-31T02:52:46.288Z,8.75
2022-12-31T02:53:46.251Z,8.74
2022-12-31T02:54:46.251Z,8.74
2022-12-31T02:55:46.255Z,8.72
2022-12-31T02:56:46.206Z,8.72
2022-12-31T02:57:46.206Z,8.72
2022-12-31T02:58:46.193Z,8.72
2022-12-31T02:59:46.196Z,8.72
2022-12-31T03:00:46.211Z,8.71
2022-12-31T03:01:46.331Z,8.70
2022-12-31T03:02:46.189Z,8.70
2022-12-31T03:03:46.170Z,8.70
2022-12-31T03:04:46.178Z,8.69
2022-12-31T03:05:46.163Z,8.67
2022-12-31T03:06:46.187Z,8.66
2022-12-31T03:07:46.103Z,8.68
2022-12-31T03:08:46.086Z,8.72
2022-12-31T03:09:46.084Z,8.77
2022-12-31T03:10:46.123Z,8.81
2022-12-31T03:11:46.071Z,8.83
2022-12-31T03:12:46.056Z,8.84
2022-12-31T03:13:46.054Z,8.85
2022-12-31T03:14:46.043Z,8.86
2022-12-31T03:15:46.056Z,8.89
2022-12-31T03:16:46.071Z,8.94
2022-12-31T03:17:46.032Z,9.00
2022-12-31T03:18:46.021Z,9.03
2022-12-31T03:19:46.034Z,9.02
2022-12-31T03:20:45.970Z,9.01
2022-12-31T03:21:45.987Z,9.01
2022-12-31T03:22:45.980Z,9.00
2022-12-31T03:23:45.979Z,9.00
2022-12-31T03:24:45.965Z,9.02
2022-12-31T03:25:45.943Z,9.03
2022-12-31T03:26:45.928Z,9.05
2022-12-31T03:27:45.932Z,9.06
2022-12-31T03:28:45.912Z,9.07
2022-12-31T03:29:45.895Z,9.08
2022-12-31T03:30:45.881Z,9.07
2022-12-31T03:31:45.923Z,9.09
2022-12-31T03:32:45.885Z,9.11
2022-12-31T03:33:45.972Z,9.14
2022-12-31T03:34:45.876Z,9.18
2022-12-31T03:35:45.823Z,9.21
2022-12-31T03:36:45.891Z,9.23
2022-12-31T03:37:45.836Z,9.22
2022-12-31T03:38:49.856Z,9.20
2022-12-31T03:39:45.808Z,9.19
2022-12-31T03:40:45.805Z,9.19
2022-12-31T03:41:45.756Z,9.19
2022-12-31T03:42:45.870Z,9.18
2022-12-31T03:43:45.736Z,9.15
2022-12-31T03:44:45.738Z,9.12
2022-12-31T03:45:45.807Z,9.09
2022-12-31T03:46:45.778Z,9.06
2022-12-31T03:47:45.718Z,9.03
2022-12-31T03:48:45.734Z,9.02
2022-12-31T03:49:45.680Z,9.00
2022-12-31T03:50:45.693Z,8.99
2022-12-31T03:51:45.761Z,8.97
2022-12-31T03:52:45.661Z,8.96
2022-12-31T03:53:45.647Z,8.96
2022-12-31T03:54:45.631Z,8.94
2022-12-31T03:55:45.717Z,8.93
2022-12-31T03:56:47.923Z,8.93
2022-12-31T03:57:45.635Z,8.92
2022-12-31T03:58:45.596Z,8.90
2022-12-31T03:59:45.586Z,8.89
2022-12-31T04:00:45.686Z,8.89
2022-12-31T04:01:45.687Z,8.89
2022-12-31T04:02:45.622Z,8.88
2022-12-31T04:03:45.555Z,8.88
2022-12-31T04:04:45.556Z,8.88
2022-12-31T04:05:45.548Z,8.89
2022-12-31T04:06:45.508Z,8.89
2022-12-31T04:07:45.514Z,8.92
2022-12-31T04:08:45.554Z,8.94
2022-12-31T04:09:45.503Z,8.98
2022-12-31T04:10:45.489Z,9.03
2022-12-31T04:11:45.501Z,9.06
2022-12-31T04:12:45.487Z,9.07
2022-12-31T04:13:45.453Z,9.07
2022-12-31T04:14:45.435Z,9.08
2022-12-31T04:15:45.477Z,9.09
2022-12-31T04:16:45.556Z,9.09
2022-12-31T04:17:45.447Z,9.09
2022-12-31T04:18:45.425Z,9.08
2022-12-31T04:19:45.397Z,9.07
2022-12-31T04:20:45.391Z,9.06
2022-12-31T04:21:45.373Z,9.07
2022-12-31T04:22:45.367Z,9.07
2022-12-31T04:23:45.423Z,9.06
2022-12-31T04:24:45.355Z,9.04
2022-12-31T04:25:45.391Z,9.01
2022-12-31T04:26:45.592Z,8.99
2022-12-31T04:27:45.362Z,9.00
2022-12-31T04:28:45.325Z,9.03
2022-12-31T04:29:45.412Z,9.05
2022-12-31T04:30:45.317Z,9.07
2022-12-31T04:31:45.300Z,9.08
2022-12-31T04:32:45.292Z,9.09
2022-12-31T04:33:45.269Z,9.09
2022-12-31T04:34:45.324Z,9.10
2022-12-31T04:35:45.242Z,9.10
2022-12-31T04:36:45.238Z,9.10
2022-12-31T04:37:45.218Z,9.10
2022-12-31T04:38:45.205Z,9.10
2022-12-31T04:39:45.188Z,9.09
2022-12-31T04:40:45.190Z,9.09
2022-12-31T04:41:45.179Z,9.10
2022-12-31T04:42:45.146Z,9.12
2022-12-31T04:43:45.199Z,9.13
2022-12-31T04:44:45.164Z,9.12
2022-12-31T04:45:45.181Z,9.13
2022-12-31T04:46:45.115Z,9.14
2022-12-31T04:47:45.119Z,9.15
2022-12-31T04:48:45.204Z,9.15
2022-12-31T04:49:45.137Z,9.14
2022-12-31T04:50:45.100Z,9.12
2022-12-31T04:51:45.061Z,9.09
2022-12-31T04:52:45.052Z,9.09
2022-12-31T04:53:45.070Z,9.10
2022-12-31T04:54:45.032Z,9.12
2022-12-31T04:55:45.029Z,9.16
2022-12-31T04:56:45.025Z,9.20
2022-12-31T04:57:45.019Z,9.25
2022-12-31T04:58:45.038Z,9.28
2022-12-31T04:59:44.989Z,9.29
2022-12-31T05:00:44.978Z,9.27
2022-12-31T05:01:45.082Z,9.24
2022-12-31T05:02:45.127Z,9.22
2022-12-31T05:03:44.996Z,9.18
2022-12-31T05:04:44.933Z,9.12
2022-12-31T05:05:44.973Z,9.07
2022-12-31T05:06:44.980Z,9.03
2022-12-31T05:07:44.955Z,9.01
2022-12-31T05:08:44.913Z,9.00
2022-12-31T05:09:44.887Z,9.00
2022-12-31T05:10:44.941Z,8.99
2022-12-31T05:11:44.876Z,8.98
2022-12-31T05:12:44.847Z,8.97
2022-12-31T05:13:44.939Z,8.95
2022-12-31T05:14:44.839Z,8.94
2022-12-31T05:15:44.841Z,8.94
2022-12-31T05:16:44.844Z,8.96
2022-12-31T05:17:44.980Z,9.00
2022-12-31T05:18:44.826Z,9.05
2022-12-31T05:19:44.849Z,9.09
2022-12-31T05:20:44.786Z,9.13
2022-12-31T05:21:44.784Z,9.16
2022-12-31T05:22:44.751Z,9.18
2022-12-31T05:23:44.772Z,9.19
2022-12-31T05:24:44.763Z,9.22
2022-12-31T05:25:44.737Z,9.26
2022-12-31T05:26:44.737Z,9.28
2022-12-31T05:27:44.718Z,9.30
2022-12-31T05:28:44.726Z,9.32
2022-12-31T05:29:45.605Z,9.35
2022-12-31T05:30:44.765Z,9.38
2022-12-31T05:31:44.695Z,9.41
2022-12-31T05:32:44.681Z,9.42
2022-12-31T05:33:44.847Z,9.42
2022-12-31T05:34:44.674Z,9.41
2022-12-31T05:35:44.706Z,9.42
2022-12-31T05:36:44.637Z,9.42
2022-12-31T05:37:44.622Z,9.42
2022-12-31T05:38:44.593Z,9.43
2022-12-31T05:39:44.595Z,9.44
2022-12-31T05:40:44.604Z,9.45
2022-12-31T05:41:44.570Z,9.44
2022-12-31T05:42:44.634Z,9.42
2022-12-31T05:43:44.625Z,9.41
2022-12-31T05:44:44.581Z,9.42
2022-12-31T05:45:44.616Z,9.44
2022-12-31T05:46:44.548Z,9.47
2022-12-31T05:47:44.537Z,9.51
2022-12-31T05:48:44.517Z,9.54
2022-12-31T05:49:44.564Z,9.56
2022-12-31T05:50:44.491Z,9.57
2022-12-31T05:51:44.550Z,9.59
2022-12-31T05:52:47.636Z,9.64
2022-12-31T05:53:44.500Z,9.67
2022-12-31T05:54:44.437Z,9.68
2022-12-31T05:55:44.462Z,9.68
2022-12-31T05:56:44.460Z,9.70
2022-12-31T05:57:44.411Z,9.71
2022-12-31T05:58:44.423Z,9.71
2022-12-31T05:59:44.405Z,9.72
2022-12-31T06:00:44.378Z,9.73
2022-12-31T06:01:44.363Z,9.75
2022-12-31T06:02:44.442Z,9.77
2022-12-31T06:03:44.440Z,9.77
2022-12-31T06:04:44.331Z,9.76
2022-12-31T06:05:44.341Z,9.75
2022-12-31T06:06:44.372Z,9.73
2022-12-31T06:07:44.460Z,9.70
2022-12-31T06:08:44.299Z,9.68
2022-12-31T06:09:44.305Z,9.63
2022-12-31T06:10:44.320Z,9.57
2022-12-31T06:11:44.281Z,9.49
2022-12-31T06:12:44.275Z,9.43
2022-12-31T06:13:44.239Z,9.39
2022-12-31T06:14:45.944Z,9.35
2022-12-31T06:15:44.281Z,9.32
2022-12-31T06:16:44.233Z,9.30
2022-12-31T06:17:44.236Z,9.27
2022-12-31T06:18:44.211Z,9.25
2022-12-31T06:19:44.622Z,9.22
2022-12-31T06:20:44.191Z,9.20
2022-12-31T06:21:44.180Z,9.19
2022-12-31T06:22:44.160Z,9.19
2022-12-31T06:23:44.184Z,9.18
2022-12-31T06:24:44.182Z,9.16
2022-12-31T06:25:44.185Z,9.14
2022-12-31T06:26:44.266Z,9.11
2022-12-31T06:27:44.129Z,9.08
2022-12-31T06:28:44.101Z,9.04
2022-12-31T06:29:44.116Z,9.01
2022-12-31T06:30:44.113Z,8.99
2022-12-31T06:31:44.067Z,8.98
2022-12-31T06:32:44.106Z,8.98
2022-12-31T06:33:44.057Z,8.98
2022-12-31T06:34:44.057Z,8.98
2022-12-31T06:35:43.998Z,8.99
2022-12-31T06:36:44.028Z,9.00
2022-12-31T06:37:43.970Z,9.01
2022-12-31T06:38:44.020Z,9.02
2022-12-31T06:39:43.987Z,9.05
2022-12-31T06:40:43.954Z,9.08
2022-12-31T06:41:43.931Z,9.09
2022-12-31T06:42:43.914Z,9.09
2022-12-31T06:43:43.892Z,9.08
2022-12-31T06:44:43.909Z,9.06
2022-12-31T06:45:43.959Z,9.04
2022-12-31T06:46:43.935Z,9.02
2022-12-31T06:47:43.935Z,9.00
2022-12-31T06:48:43.892Z,8.98
2022-12-31T06:49:43.835Z,8.96
2022-12-31T06:50:43.865Z,8.93
2022-12-31T06:51:43.819Z,8.91
2022-12-31T06:52:43.803Z,8.90
2022-12-31T06:53:43.807Z,8.87
2022-12-31T06:54:43.779Z,8.85
2022-12-31T06:55:43.827Z,8.85
2022-12-31T06:56:43.814Z,8.84
2022-12-31T06:57:43.774Z,8.84
2022-12-31T06:58:43.740Z,8.86
2022-12-31T06:59:43.781Z,8.88
2022-12-31T07:00:43.807Z,8.90
2022-12-31T07:01:43.938Z,8.91
2022-12-31T07:02:43.921Z,8.92
2022-12-31T07:03:43.741Z,8.92
2022-12-31T07:04:43.764Z,8.93
2022-12-31T07:05:43.682Z,8.93
2022-12-31T07:06:43.672Z,8.95
2022-12-31T07:07:43.658Z,8.95
2022-12-31T07:08:43.676Z,8.94
2022-12-31T07:09:43.661Z,8.92
2022-12-31T07:10:43.623Z,8.91
2022-12-31T07:11:43.631Z,8.90
2022-12-31T07:12:43.622Z,8.88
2022-12-31T07:13:43.603Z,8.85
2022-12-31T07:14:43.686Z,8.82
2022-12-31T07:15:43.673Z,8.79
2022-12-31T07:16:43.614Z,8.76
2022-12-31T07:17:43.561Z,8.74
2022-12-31T07:18:43.539Z,8.74
2022-12-31T07:19:43.630Z,8.73
2022-12-31T07:20:43.531Z,8.72
2022-12-31T07:21:43.548Z,8.71
2022-12-31T07:22:43.504Z,8.69
2022-12-31T07:23:43.497Z,8.69
2022-12-31T07:24:43.480Z,8.71
2022-12-31T07:25:43.501Z,8.71
2022-12-31T07:26:43.533Z,8.70
2022-12-31T07:27:43.461Z,8.70
2022-12-31T07:28:43.452Z,8.71
2022-12-31T07:29:43.500Z,8.73
2022-12-31T07:30:43.455Z,8.75
2022-12-31T07:31:43.512Z,8.79
2022-12-31T07:32:43.430Z,8.81
2022-12-31T07:33:43.447Z,8.83
2022-12-31T07:34:43.393Z,8.84
2022-12-31T07:35:43.374Z,8.87
2022-12-31T07:36:43.381Z,8.92
2022-12-31T07:37:43.424Z,8.96
2022-12-31T07:38:43.363Z,9.01
2022-12-31T07:39:43.391Z,9.06
2022-12-31T07:40:43.360Z,9.11
2022-12-31T07:41:43.323Z,9.14
2022-12-31T07:42:43.329Z,9.17
2022-12-31T07:43:43.305Z,9.18
2022-12-31T07:44:43.289Z,9.20
2022-12-31T07:45:43.295Z,9.19
2022-12-31T07:46:43.382Z,9.18
2022-12-31T07:47:43.254Z,9.16
2022-12-31T07:48:43.247Z,9.13
2022-12-31T07:49:43.228Z,9.13
2022-12-31T07:50:43.298Z,9.15
2022-12-31T07:51:43.247Z,9.17
2022-12-31T07:52:43.261Z,9.20
2022-12-31T07:53:43.217Z,9.24
2022-12-31T07:54:43.203Z,9.28
2022-12-31T07:55:43.198Z,9.31
2022-12-31T07:56:43.262Z,9.33
2022-12-31T07:57:43.193Z,9.35
2022-12-31T07:58:43.224Z,9.35
2022-12-31T07:59:43.137Z,9.35
2022-12-31T08:00:43.224Z,9.36
2022-12-31T08:01:43.348Z,9.38
2022-12-31T08:02:43.163Z,9.39
2022-12-31T08:03:43.108Z,9.39
2022-12-31T08:04:43.153Z,9.41
2022-12-31T08:05:43.079Z,9.44
2022-12-31T08:06:43.137Z,9.47
2022-12-31T08:07:43.061Z,9.49
2022-12-31T08:08:43.058Z,9.50
2022-12-31T08:09:43.087Z,9.51
2022-12-31T08:10:43.158Z,9.51
2022-12-31T08:11:43.079Z,9.51
2022-12-31T08:12:43.023Z,9.51
2022-12-31T08:13:43.031Z,9.49
2022-12-31T08:14:43.027Z,9.48
2022-12-31T08:15:43.014Z,9.47
2022-12-31T08:16:43.085Z,9.46
2022-12-31T08:17:43.019Z,9.45
2022-12-31T08:18:42.965Z,9.45
2022-12-31T08:19:42.966Z,9.46
2022-12-31T08:20:42.930Z,9.46
2022-12-31T08:21:42.956Z,9.46
2022-12-31T08:22:42.906Z,9.47
2022-12-31T08:23:42.888Z,9.48
2022-12-31T08:24:42.900Z,9.50
2022-12-31T08:25:42.884Z,9.51
2022-12-31T08:26:45.824Z,9.51
2022-12-31T08:27:42.865Z,9.50
2022-12-31T08:28:42.860Z,9.49
2022-12-31T08:29:42.827Z,9.49
2022-12-31T08:30:42.911Z,9.49
2022-12-31T08:31:42.985Z,9.49
2022-12-31T08:32:42.816Z,9.49
2022-12-31T08:33:42.792Z,9.49
2022-12-31T08:34:42.854Z,9.49
2022-12-31T08:35:42.771Z,9.50
2022-12-31T08:36:42.826Z,9.53
2022-12-31T08:37:42.773Z,9.55
2022-12-31T08:38:42.752Z,9.57
2022-12-31T08:39:42.857Z,9.58
2022-12-31T08:40:42.731Z,9.58
2022-12-31T08:41:43.339Z,9.57
2022-12-31T08:42:42.881Z,9.57
2022-12-31T08:43:42.774Z,9.58
2022-12-31T08:44:42.699Z,9.59
2022-12-31T08:45:42.714Z,9.61
2022-12-31T08:46:42.694Z,9.63
2022-12-31T08:47:42.673Z,9.66
2022-12-31T08:48:42.697Z,9.68
2022-12-31T08:49:42.649Z,9.70
2022-12-31T08:50:42.623Z,9.72
2022-12-31T08:51:42.729Z,9.74
2022-12-31T08:52:42.614Z,9.76
2022-12-31T08:53:42.589Z,9.75
2022-12-31T08:54:42.642Z,9.74
2022-12-31T08:55:42.662Z,9.72
2022-12-31T08:56:46.031Z,9.69
2022-12-31T08:57:42.559Z,9.66
2022-12-31T08:58:42.575Z,9.64
2022-12-31T08:59:42.528Z,9.63
2022-12-31T09:00:42.552Z,9.62
2022-12-31T09:01:42.673Z,9.62
2022-12-31T09:02:47.891Z,9.64
2022-12-31T09:03:42.499Z,9.66
2022-12-31T09:04:42.500Z,9.70
2022-12-31T09:05:42.533Z,9.73
2022-12-31T09:06:42.465Z,9.76
2022-12-31T09:07:42.482Z,9.78
2022-12-31T09:08:42.554Z,9.80
2022-12-31T09:09:42.450Z,9.81
2022-12-31T09:10:42.460Z,9.83
2022-12-31T09:11:42.430Z,9.86
2022-12-31T09:12:42.406Z,9.89
2022-12-31T09:13:42.409Z,9.92
2022-12-31T09:14:42.461Z,9.96
2022-12-31T09:15:42.496Z,10.00
2022-12-31T09:16:42.486Z,10.05
2022-12-31T09:17:42.381Z,10.10
2022-12-31T09:18:42.343Z,10.16
2022-12-31T09:19:42.364Z,10.21
2022-12-31T09:20:44.054Z,10.27
2022-12-31T09:21:42.340Z,10.31
2022-12-31T09:22:42.337Z,10.33
2022-12-31T09:23:42.290Z,10.33
2022-12-31T09:24:42.297Z,10.32
2022-12-31T09:25:42.295Z,10.29
2022-12-31T09:26:42.272Z,10.27
2022-12-31T09:27:42.254Z,10.25
2022-12-31T09:28:42.245Z,10.23
2022-12-31T09:29:42.236Z,10.21
2022-12-31T09:30:42.896Z,10.21
2022-12-31T09:31:43.116Z,10.21
2022-12-31T09:32:42.489Z,10.23
2022-12-31T09:33:43.204Z,10.24
2022-12-31T09:34:43.213Z,10.26
2022-12-31T09:35:42.527Z,10.31
2022-12-31T09:36:42.228Z,10.38
2022-12-31T09:37:42.608Z,10.45
2022-12-31T09:38:42.213Z,10.51
2022-12-31T09:39:42.902Z,10.57
2022-12-31T09:40:43.526Z,10.63
2022-12-31T09:41:42.212Z,10.68
2022-12-31T09:42:42.135Z,10.72
2022-12-31T09:43:42.164Z,10.77
2022-12-31T09:45:05.340Z,10.80
2022-12-31T09:45:44.024Z,10.83
2022-12-31T09:46:42.910Z,10.83
2022-12-31T09:47:44.529Z,10.81
2022-12-31T09:48:42.056Z,10.78
2022-12-31T09:49:42.156Z,10.75
2022-12-31T09:50:42.153Z,10.72
2022-12-31T09:51:42.027Z,10.68
2022-12-31T09:52:42.003Z,10.64
2022-12-31T09:53:42.020Z,10.62
2022-12-31T09:54:42.176Z,10.62
2022-12-31T09:55:41.992Z,10.62
2022-12-31T09:56:41.967Z,10.64
2022-12-31T09:57:41.949Z,10.68
2022-12-31T09:58:41.952Z,10.70
2022-12-31T09:59:41.969Z,10.72
2022-12-31T10:00:41.965Z,10.73
2022-12-31T10:01:42.038Z,10.73
2022-12-31T10:02:42.155Z,10.72
2022-12-31T10:03:41.959Z,10.71
2022-12-31T10:04:42.051Z,10.70
2022-12-31T10:05:41.895Z,10.70
2022-12-31T11:45:14.761Z,14.63
2022-12-31T11:46:03.772Z,14.15
2022-12-31T11:47:04.169Z,13.79
2022-12-31T11:49:02.533Z,13.42
2022-12-31T11:50:08.281Z,13.37
2022-12-31T11:51:02.565Z,13.36
2022-12-31T11:52:02.783Z,13.34
2022-12-31T11:53:02.547Z,13.33
2022-12-31T11:54:02.686Z,13.34
2022-12-31T11:55:02.591Z,13.37
2022-12-31T11:56:03.455Z,13.44
2022-12-31T11:57:02.472Z,13.48
2022-12-31T11:58:02.531Z,13.53
2022-12-31T11:59:09.276Z,13.61
2022-12-31T12:00:02.561Z,13.65
2022-12-31T12:01:09.037Z,13.64
2022-12-31T12:02:03.306Z,13.63
2022-12-31T12:03:12.430Z,13.64
2022-12-31T12:04:02.574Z,13.65
2022-12-31T12:05:10.316Z,13.66
2022-12-31T12:06:04.017Z,13.67
2022-12-31T12:07:03.079Z,13.65
2022-12-31T12:09:21.589Z,14.96
2022-12-31T12:10:22.590Z,14.50
2022-12-31T12:11:22.562Z,14.21
2022-12-31T12:12:22.567Z,14.06
2022-12-31T12:13:22.574Z,14.02
2022-12-31T12:14:22.610Z,14.03
2022-12-31T12:15:22.577Z,14.04
2022-12-31T12:16:22.621Z,14.04
2022-12-31T12:17:22.514Z,14.06
2022-12-31T12:18:22.565Z,14.09
2022-12-31T12:19:22.490Z,14.10
2022-12-31T12:20:22.532Z,14.09
2022-12-31T12:21:22.587Z,14.10
2022-12-31T12:22:22.507Z,14.11
2022-12-31T12:23:22.539Z,14.05
2022-12-31T12:24:22.537Z,13.96
2022-12-31T12:25:22.480Z,13.92
2022-12-31T12:26:22.440Z,13.89
2022-12-31T12:27:22.431Z,13.91
2022-12-31T12:28:22.410Z,13.97
2022-12-31T12:29:22.401Z,14.04
2022-12-31T12:30:22.446Z,14.11
2022-12-31T12:31:22.671Z,14.17
2022-12-31T12:32:22.379Z,14.24
2022-12-31T12:33:22.396Z,14.33
2022-12-31T12:34:22.359Z,14.42
2022-12-31T12:35:22.364Z,14.48
2022-12-31T12:36:22.408Z,14.55
2022-12-31T12:37:22.320Z,14.62
2022-12-31T12:38:22.303Z,14.61
2022-12-31T12:39:22.302Z,14.59
2022-12-31T12:40:22.256Z,14.62
2022-12-31T12:41:22.238Z,14.68
2022-12-31T12:42:22.271Z,14.72
2022-12-31T12:43:23.242Z,14.76
2022-12-31T12:44:22.249Z,14.80
2022-12-31T12:45:22.217Z,14.83
2022-12-31T12:46:22.255Z,14.85
2022-12-31T12:47:22.245Z,14.93
2022-12-31T12:48:22.174Z,15.01
2022-12-31T12:49:22.154Z,15.08
2022-12-31T12:50:22.197Z,15.13
2022-12-31T12:51:22.141Z,15.19
2022-12-31T12:52:22.129Z,15.24
2022-12-31T12:53:22.131Z,15.27
2022-12-31T12:54:22.122Z,15.28
2022-12-31T12:55:22.136Z,15.30
2022-12-31T12:56:22.091Z,15.33
2022-12-31T12:57:22.115Z,15.36
2022-12-31T12:58:22.154Z,15.40
2022-12-31T12:59:22.062Z,15.41
2022-12-31T13:00:22.069Z,15.41
2022-12-31T13:01:22.205Z,15.41
2022-12-31T13:02:22.259Z,15.37
2022-12-31T13:03:22.048Z,15.28
2022-12-31T13:04:37.415Z,15.23
2022-12-31T13:05:27.902Z,15.23
2022-12-31T13:06:22.115Z,15.17
2022-12-31T13:07:22.004Z,15.14
2022-12-31T13:08:22.031Z,15.18
2022-12-31T13:09:21.971Z,15.20
2022-12-31T13:10:22.156Z,15.13
2022-12-31T13:11:21.976Z,15.03
2022-12-31T13:12:21.973Z,14.98
2022-12-31T13:13:24.562Z,14.91
2022-12-31T13:14:21.958Z,14.84
2022-12-31T13:15:21.909Z,14.76
2022-12-31T13:16:21.939Z,14.66
2022-12-31T13:17:21.896Z,14.57
2022-12-31T13:18:21.869Z,14.50
2022-12-31T13:19:21.899Z,14.48
2022-12-31T13:20:21.893Z,14.49
2022-12-31T13:21:21.907Z,14.51
2022-12-31T13:22:21.877Z,14.47
2022-12-31T13:23:21.837Z,14.40
2022-12-31T13:24:21.840Z,14.33
2022-12-31T13:25:21.835Z,14.27
2022-12-31T13:26:21.877Z,14.22
2022-12-31T13:27:21.811Z,14.15
2022-12-31T13:28:21.809Z,14.08
2022-12-31T13:29:21.801Z,14.05
2022-12-31T13:30:21.789Z,14.04
2022-12-31T13:31:21.898Z,14.01
2022-12-31T13:32:21.772Z,13.98
2022-12-31T13:33:28.247Z,13.94
2022-12-31T13:34:21.704Z,13.92
2022-12-31T13:35:21.738Z,13.89
2022-12-31T13:36:21.718Z,13.84
2022-12-31T13:37:21.670Z,13.81
2022-12-31T13:38:21.705Z,13.79
2022-12-31T13:39:21.687Z,13.77
2022-12-31T13:40:21.731Z,13.76
2022-12-31T13:41:21.677Z,13.75
2022-12-31T13:42:21.648Z,13.71
2022-12-31T13:43:21.610Z,13.65
2022-12-31T13:44:21.617Z,13.59
2022-12-31T13:45:21.628Z,13.54
2022-12-31T13:46:21.679Z,13.49
2022-12-31T13:47:21.735Z,13.45
2022-12-31T13:48:21.654Z,13.42
2022-12-31T13:49:21.582Z,13.39
2022-12-31T13:50:21.565Z,13.37
2022-12-31T13:51:21.608Z,13.36
2022-12-31T13:52:21.567Z,13.36
2022-12-31T13:53:21.555Z,13.34
2022-12-31T13:54:21.547Z,13.33
2022-12-31T13:55:21.585Z,13.33
2022-12-31T13:56:21.532Z,13.31
2022-12-31T13:57:21.518Z,13.27
